Time;durP1;ratioP1;P1;durP2;ratioP2;P2;SDS_P1;SDS_P2;PMS_P1;PMS_P2;Temp;Humidity;BMP_temperature;BMP_pressure;BME280_temperature;BME280_humidity;BME280_pressure;Samples;Min_cycle;Max_cycle;Signal;HPM_P1;HPM_P2
2021/05/24 00:00:09;;;;;;;5.60;3.40;;;;;;;9.45;100.00;100676.13;712711;1202;114912;-81
2021/05/24 00:15:39;;;;;;;6.50;4.10;;;;;;;9.31;100.00;100692.88;712917;1203;115095;-80
2021/05/24 00:30:59;;;;;;;5.20;3.65;;;;;;;9.02;100.00;100702.13;713000;1203;113836;-81
2021/05/24 00:46:20;;;;;;;10.43;5.87;;;;;;;8.94;100.00;100705.31;713183;1202;115599;-83
2021/05/24 01:01:41;;;;;;;7.00;4.60;;;;;;;8.75;100.00;100719.76;713193;1205;115456;-83
2021/05/24 01:17:03;;;;;;;11.27;6.00;;;;;;;8.65;100.00;100716.14;715352;1180;113812;-83
2021/05/24 01:32:24;;;;;;;9.13;4.37;;;;;;;8.49;100.00;100732.11;712641;1204;114318;-84
2021/05/24 01:47:44;;;;;;;6.70;4.07;;;;;;;8.48;100.00;100733.88;712294;1203;113810;-77
2021/05/24 02:03:07;;;;;;;11.77;5.77;;;;;;;8.56;100.00;100737.73;712259;1206;115676;-77
2021/05/24 02:18:27;;;;;;;11.30;6.20;;;;;;;8.44;100.00;100736.80;712260;1206;115147;-76
2021/05/24 02:33:48;;;;;;;13.08;7.03;;;;;;;8.68;100.00;100733.39;712373;1202;115733;-77
2021/05/24 02:49:09;;;;;;;15.25;7.35;;;;;;;8.83;100.00;100727.87;712181;1202;114494;-77
2021/05/24 03:04:30;;;;;;;16.68;8.98;;;;;;;8.94;100.00;100736.71;712248;1205;115392;-76
2021/05/24 03:19:51;;;;;;;15.25;7.10;;;;;;;9.07;100.00;100750.55;712403;1202;114396;-77
2021/05/24 03:35:12;;;;;;;15.93;9.05;;;;;;;9.09;100.00;100777.45;712374;1202;114806;-77
2021/05/24 03:50:33;;;;;;;12.80;6.93;;;;;;;9.27;100.00;100783.09;712575;1202;115111;-76
2021/05/24 04:05:59;;;;;;;12.90;7.63;;;;;;;9.69;100.00;100789.59;712973;1202;114238;-75
2021/05/24 04:21:20;;;;;;;10.55;6.73;;;;;;;10.27;100.00;100794.76;712854;1192;114274;-76
2021/05/24 04:36:40;;;;;;;10.50;6.25;;;;;;;10.77;100.00;100815.33;713294;1190;114300;-77
2021/05/24 04:52:01;;;;;;;7.90;5.97;;;;;;;11.21;100.00;100808.23;712677;1202;115744;-76
2021/05/24 05:07:22;;;;;;;8.83;5.90;;;;;;;11.61;100.00;100807.55;715268;1166;115620;-72
2021/05/24 05:22:43;;;;;;;10.77;6.87;;;;;;;11.94;100.00;100825.83;712411;1177;115614;-73
2021/05/24 05:38:04;;;;;;;10.40;6.73;;;;;;;12.49;100.00;100843.94;712273;1202;114325;-73
2021/05/24 05:53:24;;;;;;;13.45;6.85;;;;;;;12.75;100.00;100852.18;712155;1202;115563;-74
2021/05/24 06:08:45;;;;;;;11.18;6.88;;;;;;;13.12;100.00;100869.14;712390;1178;114214;-73
2021/05/24 06:24:06;;;;;;;9.05;6.85;;;;;;;13.47;100.00;100879.16;712463;1206;115504;-70
2021/05/24 06:39:26;;;;;;;7.70;6.48;;;;;;;14.22;100.00;100882.89;712594;1206;115305;-73
2021/05/24 06:54:47;;;;;;;6.87;4.60;;;;;;;14.86;100.00;100896.22;712455;1203;114220;-82
2021/05/24 07:10:09;;;;;;;6.77;4.27;;;;;;;15.56;100.00;100906.13;712521;1178;114189;-84
2021/05/24 07:25:30;;;;;;;4.43;2.78;;;;;;;16.27;98.79;100922.86;712543;1178;114095;-80
2021/05/24 07:40:50;;;;;;;7.53;3.50;;;;;;;16.72;93.23;100942.95;712299;1202;115194;-83
2021/05/24 07:56:11;;;;;;;4.38;2.23;;;;;;;17.71;87.17;100953.78;712831;1179;113846;-80
2021/05/24 08:11:32;;;;;;;4.77;2.07;;;;;;;18.06;79.61;100957.09;712569;1206;114246;-81
2021/05/24 08:26:53;;;;;;;4.90;2.90;;;;;;;18.37;77.94;100956.38;712591;1177;113812;-83
2021/05/24 08:42:14;;;;;;;2.83;2.08;;;;;;;18.91;74.78;100950.39;712443;1203;115354;-82
2021/05/24 08:57:39;;;;;;;3.03;2.27;;;;;;;19.36;71.33;100953.28;712397;1206;114075;-81
2021/05/24 09:13:08;;;;;;;5.00;2.33;;;;;;;19.97;69.04;100943.65;712673;1203;115217;-81
2021/05/24 09:28:52;;;;;;;3.10;2.00;;;;;;;19.60;66.78;100932.82;712547;1179;114209;-81
2021/05/24 09:44:21;;;;;;;4.10;2.28;;;;;;;19.60;63.88;100906.20;712917;1202;115187;-81
2021/05/24 09:59:43;;;;;;;4.03;1.40;;;;;;;20.12;62.77;100920.53;712479;1206;113779;-81
2021/05/24 10:15:09;;;;;;;3.05;1.60;;;;;;;20.93;60.23;100906.41;712548;1205;115535;-80
2021/05/24 10:30:30;;;;;;;3.53;1.20;;;;;;;21.56;57.79;100909.30;712548;1206;114010;-80
2021/05/24 10:45:57;;;;;;;4.03;1.60;;;;;;;21.83;52.77;100917.53;712543;1202;114211;-77
2021/05/24 11:01:19;;;;;;;4.80;1.55;;;;;;;21.28;52.19;100898.56;712412;1203;114067;-84
2021/05/24 11:16:58;;;;;;;3.20;0.95;;;;;;;21.29;52.29;100886.88;712659;1202;114689;-78
2021/05/24 11:32:27;;;;;;;2.90;1.20;;;;;;;20.95;52.92;100883.88;713053;1202;114012;-75
2021/05/24 11:47:58;;;;;;;2.85;1.40;;;;;;;20.69;52.87;100879.07;714313;1202;115678;-76
2021/05/24 12:03:18;;;;;;;4.47;1.43;;;;;;;20.88;52.28;100885.66;712777;1203;114111;-76
2021/05/24 12:18:59;;;;;;;2.30;1.23;;;;;;;21.28;52.61;100861.21;712509;1202;114830;-75
2021/05/24 12:34:25;;;;;;;5.53;0.97;;;;;;;21.99;51.63;100841.63;712356;1206;115522;-76
2021/05/24 12:49:48;;;;;;;6.23;2.58;;;;;;;21.90;49.84;100810.75;712517;1206;114505;-75
2021/05/24 13:05:20;;;;;;;4.87;1.20;;;;;;;22.11;49.47;100807.97;712535;1202;114578;-76
2021/05/24 13:21:12;;;;;;;10.20;6.80;;;;;;;22.99;48.76;100810.89;712783;1203;114948;-76
2021/05/24 13:36:29;;;;;;;2.58;1.70;;;;;;;22.80;49.99;100773.23;712537;1206;114223;-79
2021/05/24 13:51:51;;;;;;;3.48;1.30;;;;;;;22.44;50.84;100745.02;712801;1181;114188;-75
2021/05/24 14:07:12;;;;;;;86.13;41.27;;;;;;;22.50;50.14;100727.33;712502;1205;113856;-75
2021/05/24 14:22:33;;;;;;;21.35;12.13;;;;;;;22.88;48.39;100708.83;712546;1203;115450;-75
2021/05/24 14:37:54;;;;;;;3.80;1.45;;;;;;;22.93;48.08;100702.88;712835;1188;115157;-75
2021/05/24 14:53:19;;;;;;;1.55;1.03;;;;;;;22.55;46.82;100690.13;712809;1202;114213;-76
2021/05/24 15:08:41;;;;;;;6.00;3.98;;;;;;;22.93;47.13;100660.08;712553;1177;114512;-75
2021/05/24 15:24:02;;;;;;;1.85;1.25;;;;;;;22.60;47.98;100663.60;712409;1203;113838;-76
2021/05/24 15:39:22;;;;;;;7.48;2.63;;;;;;;22.81;50.60;100661.76;712666;1203;114802;-77
2021/05/24 15:54:43;;;;;;;3.00;1.83;;;;;;;21.70;51.81;100634.45;712496;1202;114122;-77
2021/05/24 16:10:05;;;;;;;5.90;2.43;;;;;;;21.58;52.47;100610.19;712943;1202;114894;-76
2021/05/24 16:25:32;;;;;;;3.30;1.80;;;;;;;21.44;52.23;100594.09;713369;1178;114973;-80
2021/05/24 16:40:57;;;;;;;2.70;2.15;;;;;;;21.06;51.74;100581.20;712849;1180;113826;-80
2021/05/24 16:56:17;;;;;;;8.03;3.03;;;;;;;20.76;52.50;100583.28;712555;1202;114684;-76
2021/05/24 17:11:38;;;;;;;48.40;31.65;;;;;;;20.20;53.95;100560.88;712540;1202;115435;-72
2021/05/24 17:26:59;;;;;;;4.37;2.80;;;;;;;19.39;55.40;100542.46;712402;1202;115466;-72
2021/05/24 17:42:19;;;;;;;3.40;2.30;;;;;;;18.71;57.43;100523.97;712691;1202;115578;-75
2021/05/24 17:57:40;;;;;;;5.45;4.30;;;;;;;18.36;58.75;100510.40;713025;1202;114093;-75
2021/05/24 18:13:01;;;;;;;9.50;2.00;;;;;;;18.11;60.27;100500.00;712796;1189;115233;-74
2021/05/24 18:28:22;;;;;;;8.35;4.88;;;;;;;17.87;61.89;100496.51;712870;1202;114355;-73
2021/05/24 18:43:43;;;;;;;12.50;2.50;;;;;;;17.39;63.93;100501.14;712793;1202;114053;-71
2021/05/24 18:59:04;;;;;;;4.40;2.73;;;;;;;16.91;66.26;100535.66;712912;1206;115892;-72
2021/05/24 19:14:25;;;;;;;3.83;2.33;;;;;;;17.00;67.28;100521.38;713150;1203;113798;-71
2021/05/24 19:29:45;;;;;;;6.00;3.10;;;;;;;16.78;68.78;100530.85;713216;1203;113874;-73
2021/05/24 19:45:09;;;;;;;11.23;5.70;;;;;;;16.70;70.34;100514.98;713716;1202;114073;-72
2021/05/24 20:31:39;;;;;;;3.50;2.80;;;;;;;16.23;73.13;100498.86;713537;1202;115500;-72
2021/05/24 20:47:00;;;;;;;3.88;2.70;;;;;;;16.16;73.29;100492.56;714048;1202;115078;-72
2021/05/24 21:02:21;;;;;;;4.75;3.40;;;;;;;16.14;74.50;100474.22;713259;1206;114413;-72
2021/05/24 21:17:42;;;;;;;7.10;2.97;;;;;;;15.92;76.93;100449.25;713679;1181;113984;-72
2021/05/24 21:33:19;;;;;;;3.83;2.45;;;;;;;15.98;77.42;100426.59;713698;1202;114102;-72
2021/05/24 21:48:40;;;;;;;3.23;2.60;;;;;;;16.03;78.01;100395.17;713250;1181;114085;-72
2021/05/24 22:04:00;;;;;;;3.90;2.65;;;;;;;15.96;78.73;100355.33;713473;1202;115185;-73
2021/05/24 22:19:21;;;;;;;4.50;2.60;;;;;;;15.94;79.00;100325.59;715294;1201;114601;-72
2021/05/24 22:34:41;;;;;;;6.75;3.18;;;;;;;15.86;79.48;100311.55;714344;1205;115336;-73
2021/05/24 23:06:39;;;;;;;8.30;2.68;;;;;;;15.91;78.89;100240.45;712549;1205;114419;-71
2021/05/24 23:21:59;;;;;;;4.40;2.60;;;;;;;15.93;79.23;100215.47;712645;1202;115559;-71
2021/05/24 23:37:20;;;;;;;3.43;2.60;;;;;;;15.97;79.34;100229.19;712564;1206;114575;-75
2021/05/24 23:52:43;;;;;;;5.35;2.85;;;;;;;15.89;80.06;100222.11;712611;1202;115669;-75
